sensor_id;sensor_type;location;lat;lon;timestamp;P1;durP1;ratioP1;P2;durP2;ratioP2
82950;SDS011;72737;53.332;6.514;2023-11-21T00:00:44;5.93;;;1.55;;
82950;SDS011;72737;53.332;6.514;2023-11-21T00:03:10;8.10;;;1.98;;
82950;SDS011;72737;53.332;6.514;2023-11-21T00:05:40;7.10;;;1.80;;
82950;SDS011;72737;53.332;6.514;2023-11-21T00:08:08;5.65;;;1.70;;
82950;SDS011;72737;53.332;6.514;2023-11-21T00:10:34;7.43;;;1.80;;
82950;SDS011;72737;53.332;6.514;2023-11-21T00:13:00;6.05;;;1.55;;
82950;SDS011;72737;53.332;6.514;2023-11-21T00:15:27;7.90;;;2.08;;
82950;SDS011;72737;53.332;6.514;2023-11-21T00:17:53;8.15;;;1.83;;
82950;SDS011;72737;53.332;6.514;2023-11-21T00:20:18;9.10;;;2.17;;
82950;SDS011;72737;53.332;6.514;2023-11-21T00:22:44;7.25;;;1.55;;
82950;SDS011;72737;53.332;6.514;2023-11-21T00:25:10;7.70;;;2.05;;
82950;SDS011;72737;53.332;6.514;2023-11-21T00:27:35;6.63;;;1.77;;
82950;SDS011;72737;53.332;6.514;2023-11-21T00:30:01;6.53;;;1.88;;
82950;SDS011;72737;53.332;6.514;2023-11-21T00:32:29;7.30;;;2.20;;
82950;SDS011;72737;53.332;6.514;2023-11-21T00:34:54;7.53;;;1.80;;
82950;SDS011;72737;53.332;6.514;2023-11-21T00:37:20;7.78;;;2.13;;
82950;SDS011;72737;53.332;6.514;2023-11-21T00:39:45;8.93;;;1.92;;
82950;SDS011;72737;53.332;6.514;2023-11-21T00:42:11;7.07;;;1.88;;
82950;SDS011;72737;53.332;6.514;2023-11-21T00:44:37;7.25;;;2.00;;
82950;SDS011;72737;53.332;6.514;2023-11-21T00:47:04;8.88;;;2.30;;
82950;SDS011;72737;53.332;6.514;2023-11-21T00:49:29;8.98;;;1.95;;
82950;SDS011;72737;53.332;6.514;2023-11-21T00:51:55;8.15;;;1.73;;
82950;SDS011;72737;53.332;6.514;2023-11-21T00:54:23;8.65;;;2.47;;
82950;SDS011;72737;53.332;6.514;2023-11-21T00:56:48;9.23;;;2.00;;
82950;SDS011;72737;53.332;6.514;2023-11-21T00:59:13;10.40;;;1.98;;
82950;SDS011;72737;53.332;6.514;2023-11-21T01:01:39;7.80;;;1.83;;
82950;SDS011;72737;53.332;6.514;2023-11-21T01:04:05;7.72;;;2.22;;
82950;SDS011;72737;53.332;6.514;2023-11-21T01:06:31;9.30;;;2.20;;
82950;SDS011;72737;53.332;6.514;2023-11-21T01:08:57;9.02;;;2.08;;
82950;SDS011;72737;53.332;6.514;2023-11-21T01:11:23;8.07;;;1.95;;
82950;SDS011;72737;53.332;6.514;2023-11-21T01:13:48;7.80;;;1.98;;
82950;SDS011;72737;53.332;6.514;2023-11-21T01:16:14;7.85;;;1.80;;
82950;SDS011;72737;53.332;6.514;2023-11-21T01:18:39;8.13;;;2.13;;
82950;SDS011;72737;53.332;6.514;2023-11-21T01:21:05;7.20;;;1.90;;
82950;SDS011;72737;53.332;6.514;2023-11-21T01:23:30;9.10;;;2.00;;
82950;SDS011;72737;53.332;6.514;2023-11-21T01:25:57;8.05;;;1.95;;
82950;SDS011;72737;53.332;6.514;2023-11-21T01:28:22;9.00;;;2.47;;
82950;SDS011;72737;53.332;6.514;2023-11-21T01:30:48;7.82;;;1.90;;
82950;SDS011;72737;53.332;6.514;2023-11-21T01:33:14;10.50;;;2.30;;
82950;SDS011;72737;53.332;6.514;2023-11-21T01:35:41;8.40;;;2.30;;
82950;SDS011;72737;53.332;6.514;2023-11-21T01:38:07;7.72;;;1.92;;
82950;SDS011;72737;53.332;6.514;2023-11-21T01:40:33;6.85;;;2.03;;
82950;SDS011;72737;53.332;6.514;2023-11-21T01:42:59;9.48;;;2.20;;
82950;SDS011;72737;53.332;6.514;2023-11-21T01:45:27;8.07;;;1.90;;
82950;SDS011;72737;53.332;6.514;2023-11-21T01:47:54;8.38;;;2.00;;
82950;SDS011;72737;53.332;6.514;2023-11-21T01:50:20;7.03;;;1.75;;
82950;SDS011;72737;53.332;6.514;2023-11-21T01:52:47;8.25;;;1.98;;
82950;SDS011;72737;53.332;6.514;2023-11-21T01:55:14;7.00;;;1.88;;
82950;SDS011;72737;53.332;6.514;2023-11-21T01:57:43;7.38;;;1.90;;
82950;SDS011;72737;53.332;6.514;2023-11-21T02:00:08;7.38;;;1.95;;
82950;SDS011;72737;53.332;6.514;2023-11-21T02:02:49;7.82;;;2.10;;
82950;SDS011;72737;53.332;6.514;2023-11-21T02:05:15;7.43;;;1.75;;
82950;SDS011;72737;53.332;6.514;2023-11-21T02:07:44;6.53;;;1.88;;
82950;SDS011;72737;53.332;6.514;2023-11-21T02:10:13;7.47;;;1.83;;
82950;SDS011;72737;53.332;6.514;2023-11-21T02:12:40;7.60;;;2.10;;
82950;SDS011;72737;53.332;6.514;2023-11-21T02:15:07;7.97;;;1.83;;
82950;SDS011;72737;53.332;6.514;2023-11-21T02:17:42;8.18;;;1.80;;
82950;SDS011;72737;53.332;6.514;2023-11-21T02:20:12;6.22;;;1.73;;
82950;SDS011;72737;53.332;6.514;2023-11-21T02:22:40;8.23;;;2.20;;
82950;SDS011;72737;53.332;6.514;2023-11-21T02:25:07;6.93;;;1.95;;
82950;SDS011;72737;53.332;6.514;2023-11-21T02:27:34;8.23;;;2.20;;
82950;SDS011;72737;53.332;6.514;2023-11-21T02:30:00;7.57;;;1.90;;
82950;SDS011;72737;53.332;6.514;2023-11-21T02:32:26;5.65;;;1.83;;
82950;SDS011;72737;53.332;6.514;2023-11-21T02:34:52;7.82;;;1.90;;
82950;SDS011;72737;53.332;6.514;2023-11-21T02:37:21;6.35;;;1.60;;
82950;SDS011;72737;53.332;6.514;2023-11-21T02:39:46;7.50;;;2.00;;
82950;SDS011;72737;53.332;6.514;2023-11-21T02:42:12;7.65;;;1.75;;
82950;SDS011;72737;53.332;6.514;2023-11-21T02:44:37;6.78;;;1.70;;
82950;SDS011;72737;53.332;6.514;2023-11-21T02:47:02;7.05;;;1.80;;
82950;SDS011;72737;53.332;6.514;2023-11-21T02:49:29;6.07;;;1.77;;
82950;SDS011;72737;53.332;6.514;2023-11-21T02:51:54;7.20;;;1.88;;
82950;SDS011;72737;53.332;6.514;2023-11-21T02:54:20;5.60;;;1.65;;
82950;SDS011;72737;53.332;6.514;2023-11-21T02:56:47;7.10;;;1.80;;
82950;SDS011;72737;53.332;6.514;2023-11-21T02:59:12;6.78;;;1.90;;
82950;SDS011;72737;53.332;6.514;2023-11-21T03:01:38;9.23;;;1.92;;
82950;SDS011;72737;53.332;6.514;2023-11-21T03:04:03;6.68;;;1.42;;
82950;SDS011;72737;53.332;6.514;2023-11-21T03:06:29;5.78;;;1.73;;
82950;SDS011;72737;53.332;6.514;2023-11-21T03:08:55;7.53;;;1.90;;
82950;SDS011;72737;53.332;6.514;2023-11-21T03:11:20;6.80;;;1.90;;
82950;SDS011;72737;53.332;6.514;2023-11-21T03:13:46;7.10;;;1.73;;
82950;SDS011;72737;53.332;6.514;2023-11-21T03:16:11;6.55;;;1.77;;
82950;SDS011;72737;53.332;6.514;2023-11-21T03:18:37;7.22;;;1.63;;
82950;SDS011;72737;53.332;6.514;2023-11-21T03:21:04;6.65;;;1.88;;
82950;SDS011;72737;53.332;6.514;2023-11-21T03:23:30;7.65;;;1.80;;
82950;SDS011;72737;53.332;6.514;2023-11-21T03:25:57;6.25;;;1.58;;
82950;SDS011;72737;53.332;6.514;2023-11-21T03:28:24;6.32;;;2.03;;
82950;SDS011;72737;53.332;6.514;2023-11-21T03:30:50;8.07;;;1.70;;
82950;SDS011;72737;53.332;6.514;2023-11-21T03:33:15;6.95;;;1.90;;
82950;SDS011;72737;53.332;6.514;2023-11-21T03:35:41;6.30;;;1.70;;
82950;SDS011;72737;53.332;6.514;2023-11-21T03:38:07;5.75;;;1.50;;
82950;SDS011;72737;53.332;6.514;2023-11-21T03:40:34;6.63;;;1.70;;
82950;SDS011;72737;53.332;6.514;2023-11-21T03:43:00;6.18;;;1.70;;
82950;SDS011;72737;53.332;6.514;2023-11-21T03:45:26;6.35;;;1.50;;
82950;SDS011;72737;53.332;6.514;2023-11-21T03:47:51;8.00;;;2.00;;
82950;SDS011;72737;53.332;6.514;2023-11-21T03:50:16;6.28;;;1.77;;
82950;SDS011;72737;53.332;6.514;2023-11-21T03:52:42;7.40;;;1.80;;
82950;SDS011;72737;53.332;6.514;2023-11-21T03:55:08;5.95;;;1.70;;
82950;SDS011;72737;53.332;6.514;2023-11-21T03:57:35;7.25;;;1.80;;
82950;SDS011;72737;53.332;6.514;2023-11-21T04:00:01;6.63;;;2.13;;
82950;SDS011;72737;53.332;6.514;2023-11-21T04:02:29;6.38;;;1.70;;
82950;SDS011;72737;53.332;6.514;2023-11-21T04:04:56;5.05;;;1.60;;
82950;SDS011;72737;53.332;6.514;2023-11-21T04:07:22;6.45;;;1.60;;
82950;SDS011;72737;53.332;6.514;2023-11-21T04:09:47;6.25;;;1.60;;
82950;SDS011;72737;53.332;6.514;2023-11-21T04:12:13;6.60;;;1.83;;
82950;SDS011;72737;53.332;6.514;2023-11-21T04:14:38;6.80;;;1.70;;
82950;SDS011;72737;53.332;6.514;2023-11-21T04:17:04;7.40;;;1.77;;
82950;SDS011;72737;53.332;6.514;2023-11-21T04:19:29;6.68;;;1.65;;
82950;SDS011;72737;53.332;6.514;2023-11-21T04:21:55;5.45;;;1.45;;
82950;SDS011;72737;53.332;6.514;2023-11-21T04:24:20;5.82;;;1.40;;
82950;SDS011;72737;53.332;6.514;2023-11-21T04:26:45;6.13;;;1.50;;
82950;SDS011;72737;53.332;6.514;2023-11-21T04:29:11;4.82;;;1.48;;
82950;SDS011;72737;53.332;6.514;2023-11-21T04:31:37;5.63;;;1.58;;
82950;SDS011;72737;53.332;6.514;2023-11-21T04:34:02;5.38;;;1.50;;
82950;SDS011;72737;53.332;6.514;2023-11-21T04:36:29;5.03;;;1.40;;
82950;SDS011;72737;53.332;6.514;2023-11-21T04:38:55;6.80;;;1.80;;
82950;SDS011;72737;53.332;6.514;2023-11-21T04:41:21;8.35;;;1.90;;
82950;SDS011;72737;53.332;6.514;2023-11-21T04:43:46;6.97;;;1.90;;
82950;SDS011;72737;53.332;6.514;2023-11-21T04:46:12;8.18;;;1.92;;
82950;SDS011;72737;53.332;6.514;2023-11-21T04:48:38;7.25;;;1.67;;
82950;SDS011;72737;53.332;6.514;2023-11-21T04:51:03;8.15;;;1.75;;
82950;SDS011;72737;53.332;6.514;2023-11-21T04:53:29;6.20;;;1.80;;
82950;SDS011;72737;53.332;6.514;2023-11-21T04:55:55;6.38;;;1.60;;
82950;SDS011;72737;53.332;6.514;2023-11-21T04:58:20;7.78;;;1.80;;
82950;SDS011;72737;53.332;6.514;2023-11-21T05:00:46;5.85;;;1.70;;
82950;SDS011;72737;53.332;6.514;2023-11-21T05:03:11;4.90;;;1.73;;
82950;SDS011;72737;53.332;6.514;2023-11-21T05:05:37;6.47;;;1.70;;
82950;SDS011;72737;53.332;6.514;2023-11-21T05:08:02;7.03;;;1.77;;
82950;SDS011;72737;53.332;6.514;2023-11-21T05:10:28;6.35;;;1.65;;
82950;SDS011;72737;53.332;6.514;2023-11-21T05:12:54;7.97;;;1.85;;
82950;SDS011;72737;53.332;6.514;2023-11-21T05:15:20;5.90;;;1.77;;
82950;SDS011;72737;53.332;6.514;2023-11-21T05:17:46;6.72;;;1.60;;
82950;SDS011;72737;53.332;6.514;2023-11-21T05:20:13;5.80;;;1.70;;
82950;SDS011;72737;53.332;6.514;2023-11-21T05:22:39;5.75;;;1.70;;
82950;SDS011;72737;53.332;6.514;2023-11-21T05:25:07;7.80;;;1.80;;
82950;SDS011;72737;53.332;6.514;2023-11-21T05:27:33;5.43;;;1.58;;
82950;SDS011;72737;53.332;6.514;2023-11-21T05:30:02;6.93;;;2.00;;
82950;SDS011;72737;53.332;6.514;2023-11-21T05:32:30;6.90;;;1.70;;
82950;SDS011;72737;53.332;6.514;2023-11-21T05:34:56;7.50;;;1.83;;
82950;SDS011;72737;53.332;6.514;2023-11-21T05:37:21;5.93;;;2.03;;
82950;SDS011;72737;53.332;6.514;2023-11-21T05:39:48;7.63;;;1.70;;
82950;SDS011;72737;53.332;6.514;2023-11-21T05:42:14;6.93;;;2.13;;
82950;SDS011;72737;53.332;6.514;2023-11-21T05:44:41;7.93;;;1.88;;
82950;SDS011;72737;53.332;6.514;2023-11-21T05:47:08;9.55;;;2.13;;
82950;SDS011;72737;53.332;6.514;2023-11-21T05:49:33;7.53;;;1.80;;
82950;SDS011;72737;53.332;6.514;2023-11-21T05:52:00;6.20;;;1.50;;
82950;SDS011;72737;53.332;6.514;2023-11-21T05:54:25;7.28;;;2.10;;
82950;SDS011;72737;53.332;6.514;2023-11-21T05:56:51;6.70;;;1.70;;
82950;SDS011;72737;53.332;6.514;2023-11-21T05:59:16;10.25;;;2.03;;
82950;SDS011;72737;53.332;6.514;2023-11-21T06:01:42;7.88;;;1.73;;
82950;SDS011;72737;53.332;6.514;2023-11-21T06:04:07;6.00;;;1.90;;
82950;SDS011;72737;53.332;6.514;2023-11-21T06:06:34;6.15;;;1.80;;
82950;SDS011;72737;53.332;6.514;2023-11-21T06:09:00;7.95;;;2.03;;
82950;SDS011;72737;53.332;6.514;2023-11-21T06:11:26;9.57;;;2.22;;
82950;SDS011;72737;53.332;6.514;2023-11-21T06:13:51;7.68;;;2.10;;
82950;SDS011;72737;53.332;6.514;2023-11-21T06:16:18;8.60;;;2.10;;
82950;SDS011;72737;53.332;6.514;2023-11-21T06:18:45;10.60;;;2.88;;
82950;SDS011;72737;53.332;6.514;2023-11-21T06:21:11;7.53;;;2.13;;
82950;SDS011;72737;53.332;6.514;2023-11-21T06:23:36;11.02;;;2.47;;
82950;SDS011;72737;53.332;6.514;2023-11-21T06:26:02;8.23;;;2.10;;
82950;SDS011;72737;53.332;6.514;2023-11-21T06:28:29;8.10;;;2.83;;
82950;SDS011;72737;53.332;6.514;2023-11-21T06:30:55;11.07;;;2.20;;
82950;SDS011;72737;53.332;6.514;2023-11-21T06:33:22;7.90;;;2.00;;
82950;SDS011;72737;53.332;6.514;2023-11-21T06:35:47;10.02;;;2.78;;
82950;SDS011;72737;53.332;6.514;2023-11-21T06:38:12;9.82;;;2.55;;
82950;SDS011;72737;53.332;6.514;2023-11-21T06:40:38;9.80;;;2.63;;
82950;SDS011;72737;53.332;6.514;2023-11-21T06:43:04;8.82;;;2.42;;
82950;SDS011;72737;53.332;6.514;2023-11-21T06:45:32;9.38;;;2.10;;
82950;SDS011;72737;53.332;6.514;2023-11-21T06:47:57;8.93;;;2.80;;
82950;SDS011;72737;53.332;6.514;2023-11-21T06:50:22;9.13;;;2.53;;
82950;SDS011;72737;53.332;6.514;2023-11-21T06:52:48;8.25;;;2.88;;
82950;SDS011;72737;53.332;6.514;2023-11-21T06:55:13;11.98;;;2.60;;
82950;SDS011;72737;53.332;6.514;2023-11-21T06:57:39;9.52;;;2.55;;
82950;SDS011;72737;53.332;6.514;2023-11-21T07:00:04;7.07;;;2.25;;
82950;SDS011;72737;53.332;6.514;2023-11-21T07:04:57;8.90;;;2.30;;
82950;SDS011;72737;53.332;6.514;2023-11-21T07:07:22;7.45;;;2.33;;
82950;SDS011;72737;53.332;6.514;2023-11-21T07:09:47;7.07;;;2.55;;
82950;SDS011;72737;53.332;6.514;2023-11-21T07:12:13;6.65;;;2.30;;
82950;SDS011;72737;53.332;6.514;2023-11-21T07:14:39;8.85;;;2.90;;
82950;SDS011;72737;53.332;6.514;2023-11-21T07:17:06;7.63;;;2.80;;
82950;SDS011;72737;53.332;6.514;2023-11-21T07:19:31;8.00;;;2.53;;
82950;SDS011;72737;53.332;6.514;2023-11-21T07:21:57;6.22;;;2.20;;
82950;SDS011;72737;53.332;6.514;2023-11-21T07:24:22;7.10;;;2.42;;
82950;SDS011;72737;53.332;6.514;2023-11-21T07:26:48;9.23;;;2.53;;
82950;SDS011;72737;53.332;6.514;2023-11-21T07:29:14;7.85;;;2.60;;
82950;SDS011;72737;53.332;6.514;2023-11-21T07:31:39;10.30;;;2.58;;
82950;SDS011;72737;53.332;6.514;2023-11-21T07:34:06;7.85;;;2.40;;
82950;SDS011;72737;53.332;6.514;2023-11-21T07:36:33;8.32;;;2.55;;
82950;SDS011;72737;53.332;6.514;2023-11-21T07:38:59;8.05;;;2.60;;
82950;SDS011;72737;53.332;6.514;2023-11-21T07:41:25;8.90;;;2.67;;
82950;SDS011;72737;53.332;6.514;2023-11-21T07:43:50;8.15;;;2.60;;
82950;SDS011;72737;53.332;6.514;2023-11-21T07:46:16;6.88;;;2.30;;
82950;SDS011;72737;53.332;6.514;2023-11-21T07:48:42;6.70;;;2.38;;
82950;SDS011;72737;53.332;6.514;2023-11-21T07:51:08;6.72;;;2.40;;
82950;SDS011;72737;53.332;6.514;2023-11-21T07:56:03;8.05;;;2.72;;
82950;SDS011;72737;53.332;6.514;2023-11-21T07:58:30;6.18;;;2.22;;
82950;SDS011;72737;53.332;6.514;2023-11-21T08:00:56;6.88;;;2.60;;
82950;SDS011;72737;53.332;6.514;2023-11-21T08:03:21;7.82;;;2.47;;
82950;SDS011;72737;53.332;6.514;2023-11-21T08:05:47;8.95;;;2.90;;
82950;SDS011;72737;53.332;6.514;2023-11-21T08:08:13;6.18;;;2.20;;
82950;SDS011;72737;53.332;6.514;2023-11-21T08:10:38;7.15;;;2.55;;
82950;SDS011;72737;53.332;6.514;2023-11-21T08:13:04;7.85;;;2.47;;
82950;SDS011;72737;53.332;6.514;2023-11-21T08:15:31;8.05;;;2.70;;
82950;SDS011;72737;53.332;6.514;2023-11-21T08:17:57;7.43;;;2.55;;
82950;SDS011;72737;53.332;6.514;2023-11-21T08:20:24;6.13;;;2.20;;
82950;SDS011;72737;53.332;6.514;2023-11-21T08:22:50;7.15;;;2.30;;
82950;SDS011;72737;53.332;6.514;2023-11-21T08:25:16;6.25;;;2.20;;
82950;SDS011;72737;53.332;6.514;2023-11-21T08:27:45;7.55;;;2.33;;
82950;SDS011;72737;53.332;6.514;2023-11-21T08:30:10;7.90;;;2.22;;
82950;SDS011;72737;53.332;6.514;2023-11-21T08:32:37;6.68;;;2.55;;
82950;SDS011;72737;53.332;6.514;2023-11-21T08:35:04;8.07;;;2.40;;
82950;SDS011;72737;53.332;6.514;2023-11-21T08:37:31;8.57;;;2.60;;
82950;SDS011;72737;53.332;6.514;2023-11-21T08:39:58;7.75;;;2.58;;
82950;SDS011;72737;53.332;6.514;2023-11-21T08:42:27;6.45;;;2.20;;
82950;SDS011;72737;53.332;6.514;2023-11-21T08:44:55;5.78;;;2.30;;
82950;SDS011;72737;53.332;6.514;2023-11-21T08:47:23;8.25;;;2.53;;
82950;SDS011;72737;53.332;6.514;2023-11-21T08:49:50;7.70;;;2.60;;
82950;SDS011;72737;53.332;6.514;2023-11-21T08:52:18;4.78;;;1.80;;
82950;SDS011;72737;53.332;6.514;2023-11-21T08:54:49;6.90;;;2.22;;
82950;SDS011;72737;53.332;6.514;2023-11-21T08:57:21;6.75;;;2.35;;
82950;SDS011;72737;53.332;6.514;2023-11-21T08:59:47;6.40;;;2.40;;
82950;SDS011;72737;53.332;6.514;2023-11-21T09:02:12;7.80;;;2.70;;
82950;SDS011;72737;53.332;6.514;2023-11-21T09:04:38;6.05;;;2.38;;
82950;SDS011;72737;53.332;6.514;2023-11-21T09:07:03;6.43;;;2.28;;
82950;SDS011;72737;53.332;6.514;2023-11-21T09:09:29;5.68;;;2.20;;
82950;SDS011;72737;53.332;6.514;2023-11-21T09:11:55;7.35;;;2.42;;
82950;SDS011;72737;53.332;6.514;2023-11-21T09:14:20;6.13;;;2.30;;
82950;SDS011;72737;53.332;6.514;2023-11-21T09:16:46;5.35;;;2.28;;
82950;SDS011;72737;53.332;6.514;2023-11-21T09:19:12;6.57;;;2.30;;
82950;SDS011;72737;53.332;6.514;2023-11-21T09:21:39;6.40;;;2.30;;
82950;SDS011;72737;53.332;6.514;2023-11-21T09:24:04;5.90;;;2.10;;
82950;SDS011;72737;53.332;6.514;2023-11-21T09:26:30;6.07;;;2.25;;
82950;SDS011;72737;53.332;6.514;2023-11-21T09:28:56;6.55;;;2.30;;
82950;SDS011;72737;53.332;6.514;2023-11-21T09:31:22;6.30;;;2.33;;
82950;SDS011;72737;53.332;6.514;2023-11-21T09:33:48;5.88;;;2.30;;
82950;SDS011;72737;53.332;6.514;2023-11-21T09:36:14;5.30;;;1.98;;
82950;SDS011;72737;53.332;6.514;2023-11-21T09:38:40;6.50;;;2.47;;
82950;SDS011;72737;53.332;6.514;2023-11-21T09:41:09;6.20;;;2.30;;
82950;SDS011;72737;53.332;6.514;2023-11-21T09:43:42;5.72;;;2.33;;
82950;SDS011;72737;53.332;6.514;2023-11-21T09:46:11;5.55;;;2.10;;
82950;SDS011;72737;53.332;6.514;2023-11-21T09:48:41;5.82;;;2.20;;
82950;SDS011;72737;53.332;6.514;2023-11-21T09:51:08;6.10;;;2.50;;
82950;SDS011;72737;53.332;6.514;2023-11-21T09:53:36;6.38;;;2.30;;
82950;SDS011;72737;53.332;6.514;2023-11-21T09:56:03;5.53;;;2.13;;
82950;SDS011;72737;53.332;6.514;2023-11-21T09:58:29;6.18;;;2.42;;
82950;SDS011;72737;53.332;6.514;2023-11-21T10:00:55;5.20;;;2.30;;
82950;SDS011;72737;53.332;6.514;2023-11-21T10:03:26;6.10;;;2.38;;
82950;SDS011;72737;53.332;6.514;2023-11-21T10:05:51;5.63;;;2.25;;
82950;SDS011;72737;53.332;6.514;2023-11-21T10:08:21;5.53;;;2.30;;
82950;SDS011;72737;53.332;6.514;2023-11-21T10:10:49;6.07;;;2.30;;
82950;SDS011;72737;53.332;6.514;2023-11-21T10:13:18;5.82;;;2.40;;
82950;SDS011;72737;53.332;6.514;2023-11-21T10:15:44;5.57;;;2.30;;
82950;SDS011;72737;53.332;6.514;2023-11-21T10:18:15;6.03;;;2.47;;
82950;SDS011;72737;53.332;6.514;2023-11-21T10:20:41;6.38;;;2.40;;
82950;SDS011;72737;53.332;6.514;2023-11-21T10:23:08;6.55;;;2.40;;
82950;SDS011;72737;53.332;6.514;2023-11-21T10:25:36;6.07;;;2.10;;
82950;SDS011;72737;53.332;6.514;2023-11-21T10:28:02;5.75;;;2.10;;
82950;SDS011;72737;53.332;6.514;2023-11-21T10:30:35;6.53;;;2.30;;
82950;SDS011;72737;53.332;6.514;2023-11-21T10:33:03;6.20;;;2.40;;
82950;SDS011;72737;53.332;6.514;2023-11-21T10:35:39;5.88;;;2.50;;
82950;SDS011;72737;53.332;6.514;2023-11-21T10:38:07;5.20;;;2.10;;
82950;SDS011;72737;53.332;6.514;2023-11-21T10:40:37;6.60;;;2.20;;
82950;SDS011;72737;53.332;6.514;2023-11-21T10:43:07;5.65;;;2.17;;
82950;SDS011;72737;53.332;6.514;2023-11-21T10:45:37;5.38;;;2.35;;
82950;SDS011;72737;53.332;6.514;2023-11-21T10:48:06;4.55;;;1.88;;
82950;SDS011;72737;53.332;6.514;2023-11-21T10:50:36;5.47;;;2.30;;
82950;SDS011;72737;53.332;6.514;2023-11-21T10:53:05;5.97;;;2.15;;
82950;SDS011;72737;53.332;6.514;2023-11-21T10:55:31;4.97;;;2.20;;
82950;SDS011;72737;53.332;6.514;2023-11-21T11:00:27;5.22;;;2.20;;
82950;SDS011;72737;53.332;6.514;2023-11-21T11:02:54;6.15;;;2.28;;
82950;SDS011;72737;53.332;6.514;2023-11-21T11:07:52;5.25;;;2.30;;
82950;SDS011;72737;53.332;6.514;2023-11-21T11:10:27;5.55;;;2.38;;
82950;SDS011;72737;53.332;6.514;2023-11-21T11:12:54;5.63;;;2.20;;
82950;SDS011;72737;53.332;6.514;2023-11-21T11:15:20;5.28;;;2.30;;
82950;SDS011;72737;53.332;6.514;2023-11-21T11:17:46;4.90;;;2.38;;
82950;SDS011;72737;53.332;6.514;2023-11-21T11:20:14;4.88;;;2.00;;
82950;SDS011;72737;53.332;6.514;2023-11-21T11:22:50;5.30;;;2.00;;
82950;SDS011;72737;53.332;6.514;2023-11-21T11:28:21;5.78;;;2.50;;
82950;SDS011;72737;53.332;6.514;2023-11-21T11:31:00;5.13;;;2.30;;
82950;SDS011;72737;53.332;6.514;2023-11-21T11:33:41;5.35;;;2.10;;
82950;SDS011;72737;53.332;6.514;2023-11-21T11:38:38;5.82;;;2.35;;
82950;SDS011;72737;53.332;6.514;2023-11-21T11:41:04;5.53;;;2.28;;
82950;SDS011;72737;53.332;6.514;2023-11-21T11:43:30;5.00;;;2.33;;
82950;SDS011;72737;53.332;6.514;2023-11-21T11:46:09;5.00;;;2.25;;
82950;SDS011;72737;53.332;6.514;2023-11-21T11:48:38;5.32;;;2.20;;
82950;SDS011;72737;53.332;6.514;2023-11-21T11:51:11;5.30;;;2.40;;
82950;SDS011;72737;53.332;6.514;2023-11-21T11:53:40;4.65;;;2.25;;
82950;SDS011;72737;53.332;6.514;2023-11-21T11:56:23;5.10;;;2.40;;
82950;SDS011;72737;53.332;6.514;2023-11-21T11:58:55;5.13;;;2.30;;
82950;SDS011;72737;53.332;6.514;2023-11-21T12:01:22;4.43;;;2.00;;
82950;SDS011;72737;53.332;6.514;2023-11-21T12:06:41;5.00;;;2.28;;
82950;SDS011;72737;53.332;6.514;2023-11-21T12:09:12;5.03;;;2.20;;
82950;SDS011;72737;53.332;6.514;2023-11-21T12:11:43;5.18;;;2.20;;
82950;SDS011;72737;53.332;6.514;2023-11-21T12:14:09;4.72;;;2.08;;
82950;SDS011;72737;53.332;6.514;2023-11-21T12:16:34;5.15;;;2.10;;
82950;SDS011;72737;53.332;6.514;2023-11-21T12:19:00;5.05;;;2.20;;
82950;SDS011;72737;53.332;6.514;2023-11-21T12:21:25;6.10;;;2.17;;
82950;SDS011;72737;53.332;6.514;2023-11-21T12:23:51;4.70;;;2.20;;
82950;SDS011;72737;53.332;6.514;2023-11-21T12:26:18;5.50;;;2.08;;
82950;SDS011;72737;53.332;6.514;2023-11-21T12:28:43;5.05;;;2.30;;
82950;SDS011;72737;53.332;6.514;2023-11-21T12:31:19;5.20;;;2.30;;
82950;SDS011;72737;53.332;6.514;2023-11-21T12:33:45;4.65;;;2.03;;
82950;SDS011;72737;53.332;6.514;2023-11-21T12:36:11;5.20;;;2.17;;
82950;SDS011;72737;53.332;6.514;2023-11-21T12:38:36;5.68;;;2.35;;
82950;SDS011;72737;53.332;6.514;2023-11-21T12:41:02;4.85;;;2.20;;
82950;SDS011;72737;53.332;6.514;2023-11-21T12:43:28;5.50;;;2.20;;
82950;SDS011;72737;53.332;6.514;2023-11-21T12:46:07;5.20;;;2.25;;
82950;SDS011;72737;53.332;6.514;2023-11-21T12:48:38;5.20;;;2.30;;
82950;SDS011;72737;53.332;6.514;2023-11-21T12:51:05;5.00;;;1.90;;
82950;SDS011;72737;53.332;6.514;2023-11-21T12:53:31;5.30;;;2.13;;
82950;SDS011;72737;53.332;6.514;2023-11-21T12:56:02;4.10;;;1.95;;
82950;SDS011;72737;53.332;6.514;2023-11-21T12:58:28;5.03;;;2.00;;
82950;SDS011;72737;53.332;6.514;2023-11-21T13:00:54;5.97;;;2.40;;
82950;SDS011;72737;53.332;6.514;2023-11-21T13:03:24;5.22;;;2.15;;
82950;SDS011;72737;53.332;6.514;2023-11-21T13:05:51;5.47;;;2.58;;
82950;SDS011;72737;53.332;6.514;2023-11-21T13:08:21;5.15;;;2.28;;
82950;SDS011;72737;53.332;6.514;2023-11-21T13:10:51;4.78;;;2.20;;
82950;SDS011;72737;53.332;6.514;2023-11-21T13:13:19;4.75;;;2.22;;
82950;SDS011;72737;53.332;6.514;2023-11-21T13:15:48;5.80;;;2.50;;
82950;SDS011;72737;53.332;6.514;2023-11-21T13:18:19;5.63;;;2.38;;
82950;SDS011;72737;53.332;6.514;2023-11-21T13:20:46;5.38;;;2.38;;
82950;SDS011;72737;53.332;6.514;2023-11-21T13:23:12;5.40;;;2.63;;
82950;SDS011;72737;53.332;6.514;2023-11-21T13:25:40;5.53;;;2.30;;
82950;SDS011;72737;53.332;6.514;2023-11-21T13:28:10;5.72;;;2.70;;
82950;SDS011;72737;53.332;6.514;2023-11-21T13:30:36;4.80;;;2.20;;
82950;SDS011;72737;53.332;6.514;2023-11-21T13:33:04;5.25;;;2.10;;
82950;SDS011;72737;53.332;6.514;2023-11-21T13:35:32;4.88;;;2.08;;
82950;SDS011;72737;53.332;6.514;2023-11-21T13:38:12;4.47;;;2.00;;
82950;SDS011;72737;53.332;6.514;2023-11-21T13:40:39;5.40;;;2.15;;
82950;SDS011;72737;53.332;6.514;2023-11-21T13:43:10;5.47;;;2.30;;
82950;SDS011;72737;53.332;6.514;2023-11-21T13:45:42;5.40;;;2.30;;
82950;SDS011;72737;53.332;6.514;2023-11-21T13:48:09;5.63;;;2.47;;
82950;SDS011;72737;53.332;6.514;2023-11-21T13:53:20;5.70;;;2.40;;
82950;SDS011;72737;53.332;6.514;2023-11-21T13:55:49;5.30;;;2.40;;
82950;SDS011;72737;53.332;6.514;2023-11-21T13:58:22;5.35;;;2.30;;
82950;SDS011;72737;53.332;6.514;2023-11-21T14:01:00;5.00;;;2.10;;
82950;SDS011;72737;53.332;6.514;2023-11-21T14:06:04;5.55;;;2.28;;
82950;SDS011;72737;53.332;6.514;2023-11-21T14:08:42;5.53;;;2.42;;
82950;SDS011;72737;53.332;6.514;2023-11-21T14:11:07;5.75;;;2.40;;
82950;SDS011;72737;53.332;6.514;2023-11-21T14:13:36;5.28;;;2.10;;
82950;SDS011;72737;53.332;6.514;2023-11-21T14:16:02;5.80;;;2.50;;
82950;SDS011;72737;53.332;6.514;2023-11-21T14:18:31;5.30;;;2.45;;
82950;SDS011;72737;53.332;6.514;2023-11-21T14:21:04;5.47;;;2.05;;
82950;SDS011;72737;53.332;6.514;2023-11-21T14:23:31;5.30;;;2.00;;
82950;SDS011;72737;53.332;6.514;2023-11-21T14:25:58;4.72;;;2.10;;
82950;SDS011;72737;53.332;6.514;2023-11-21T14:28:26;4.45;;;2.38;;
82950;SDS011;72737;53.332;6.514;2023-11-21T14:30:51;4.50;;;2.00;;
82950;SDS011;72737;53.332;6.514;2023-11-21T14:33:17;5.30;;;2.20;;
82950;SDS011;72737;53.332;6.514;2023-11-21T14:35:43;4.60;;;1.90;;
82950;SDS011;72737;53.332;6.514;2023-11-21T14:38:08;4.65;;;1.85;;
82950;SDS011;72737;53.332;6.514;2023-11-21T14:40:35;4.97;;;2.28;;
82950;SDS011;72737;53.332;6.514;2023-11-21T14:43:02;5.10;;;2.20;;
82950;SDS011;72737;53.332;6.514;2023-11-21T14:45:31;5.25;;;2.22;;
82950;SDS011;72737;53.332;6.514;2023-11-21T14:47:57;4.93;;;2.10;;
82950;SDS011;72737;53.332;6.514;2023-11-21T14:50:35;6.15;;;2.17;;
82950;SDS011;72737;53.332;6.514;2023-11-21T14:53:24;5.10;;;2.40;;
82950;SDS011;72737;53.332;6.514;2023-11-21T14:56:07;4.80;;;2.20;;
82950;SDS011;72737;53.332;6.514;2023-11-21T15:01:01;5.20;;;2.20;;
82950;SDS011;72737;53.332;6.514;2023-11-21T15:03:29;5.25;;;2.17;;
82950;SDS011;72737;53.332;6.514;2023-11-21T15:06:01;4.22;;;1.88;;
82950;SDS011;72737;53.332;6.514;2023-11-21T15:08:58;4.63;;;1.92;;
82950;SDS011;72737;53.332;6.514;2023-11-21T15:11:33;4.75;;;2.03;;
82950;SDS011;72737;53.332;6.514;2023-11-21T15:13:59;5.80;;;1.85;;